Ketchikan International Airport Ketchikan US
ICAO: PAKT
IATA: KTN
Category: Medium
Scheduled Services:

Elevation: 89 ft
TransAlt. 18000 ft.

Airport Communications:
ATIS:119.9
ANCHORAGE CNTR:118.5
CTAF:123.6
RDO:123.6
UNICOM:122.95

PAKT Zoom In..

If you have problems with the map follow the link
https://www.worldairports.se/pages/airport.php?
ICAO=PAKT

Runways:

(A) RW 11 length 7500 ft width 150 ft
ILS 109.30 / hdg 115

(B) RW 29 length 7500 ft width 150 ft
---- / hdg 295

Location; PAKT
Day. 21 / Time. 18.53 Zulu
* Altimeter: 30.04
* Temperature: 09° c. 48.2°f.
* Wind from: PAK° Speed T kn.
Dewpoint: 07° c.
Visibility: 10 Statute Miles.
Clouds: Scattered 100 ft.
Conditions: Fog.

PAKT 211853Z 00000KT 10SM SCT001 09/07 A3004 RMK AO2 SLP173 FG E VIS E 1 HARBOR WND 16004KT T00890067 $


Wind From PAK°
Speed T kn.

 
 
jpsmedia.com for Web Design worldairports.se 2018   terms of use